Time;durP1;ratioP1;P1;durP2;ratioP2;P2;SDS_P1;SDS_P2;PMS_P1;PMS_P2;Temp;Humidity;BMP_temperature;BMP_pressure;BME280_temperature;BME280_humidity;BME280_pressure;Samples;Min_cycle;Max_cycle;Signal;HPM_P1;HPM_P2
2021/07/21 00:00:48;;;;;;;14.50;9.18;;;15.10;99.90;;;;;;5014439;28;20163;-85
2021/07/21 00:03:14;;;;;;;22.77;10.38;;;15.10;99.90;;;;;;5014206;28;20058;-84
2021/07/21 00:05:40;;;;;;;16.92;9.60;;;15.10;99.90;;;;;;5000836;28;20116;-85
2021/07/21 00:08:06;;;;;;;16.65;8.43;;;15.10;99.90;;;;;;4994814;28;20463;-85
2021/07/21 00:10:32;;;;;;;13.25;7.85;;;15.10;99.90;;;;;;4994703;28;20454;-85
2021/07/21 00:15:56;;;;;;;15.95;9.23;;;14.90;99.90;;;;;;4995637;28;20572;-84
2021/07/21 00:18:29;;;;;;;16.63;7.80;;;14.80;99.90;;;;;;4994657;28;20034;-84
2021/07/21 00:20:55;;;;;;;11.68;7.40;;;14.60;99.90;;;;;;4994569;28;20458;-84
2021/07/21 00:23:20;;;;;;;21.77;9.88;;;14.50;99.90;;;;;;4994079;28;20041;-84
2021/07/21 00:25:47;;;;;;;19.98;8.82;;;14.50;99.90;;;;;;5001200;28;20049;-85
2021/07/21 00:28:13;;;;;;;14.32;7.65;;;14.40;99.90;;;;;;4995002;28;20038;-84
2021/07/21 00:30:39;;;;;;;17.73;9.90;;;14.20;99.90;;;;;;4994347;28;20454;-85
2021/07/21 00:33:05;;;;;;;19.67;8.90;;;14.20;99.90;;;;;;4994157;28;20105;-83
2021/07/21 00:35:31;;;;;;;16.20;8.38;;;14.10;99.90;;;;;;4995462;28;20122;-84
2021/07/21 00:37:56;;;;;;;20.30;9.15;;;14.10;99.90;;;;;;5013673;28;20025;-86
2021/07/21 00:40:22;;;;;;;19.30;8.95;;;14.00;99.90;;;;;;5028953;28;20022;-85
2021/07/21 00:42:48;;;;;;;15.65;9.85;;;14.20;99.90;;;;;;5013351;28;20036;-85
2021/07/21 00:45:13;;;;;;;18.95;9.85;;;14.10;99.90;;;;;;5028822;28;20409;-85
2021/07/21 00:47:39;;;;;;;21.95;9.20;;;14.00;99.90;;;;;;5013174;28;20041;-85
2021/07/21 00:50:07;;;;;;;25.85;9.52;;;13.90;99.90;;;;;;4994003;28;20471;-84
2021/07/21 00:52:35;;;;;;;23.20;10.18;;;13.80;99.90;;;;;;4993665;28;20041;-84
2021/07/21 00:55:02;;;;;;;30.73;10.00;;;13.90;99.90;;;;;;4993810;28;20019;-85
2021/07/21 00:57:28;;;;;;;19.88;9.27;;;13.90;99.90;;;;;;5019657;28;20029;-85
2021/07/21 00:59:55;;;;;;;21.02;10.13;;;14.00;99.90;;;;;;5013371;28;20026;-85
2021/07/21 01:02:21;;;;;;;25.90;11.10;;;14.00;99.90;;;;;;5012984;28;20056;-84
2021/07/21 01:04:47;;;;;;;20.30;10.05;;;13.90;99.90;;;;;;5013029;28;20093;-84
2021/07/21 01:07:13;;;;;;;24.88;9.77;;;13.90;99.90;;;;;;5006919;28;20113;-84
2021/07/21 01:09:43;;;;;;;23.83;10.10;;;13.90;99.90;;;;;;4993610;28;20085;-85
2021/07/21 01:12:26;;;;;;;24.67;10.75;;;13.90;99.90;;;;;;4991798;28;20221;-85
2021/07/21 01:15:20;;;;;;;28.60;9.73;;;13.90;99.90;;;;;;4993498;28;20093;-85
2021/07/21 01:18:10;;;;;;;19.30;9.68;;;13.90;99.90;;;;;;5016094;28;20022;-85
2021/07/21 01:21:01;;;;;;;13.90;7.57;;;13.70;99.90;;;;;;5012994;28;20026;-85
2021/07/21 01:23:44;;;;;;;15.80;9.43;;;13.50;99.90;;;;;;5012617;28;20041;-84
2021/07/21 01:26:13;;;;;;;15.90;10.23;;;13.50;99.90;;;;;;5012876;28;20033;-85
2021/07/21 01:28:44;;;;;;;26.73;11.35;;;13.60;99.90;;;;;;5000618;28;20136;-85
2021/07/21 01:31:16;;;;;;;31.65;11.35;;;13.60;99.90;;;;;;4993134;28;20031;-85
2021/07/21 01:33:43;;;;;;;33.92;12.00;;;13.70;99.90;;;;;;4993196;28;20076;-84
2021/07/21 01:36:14;;;;;;;15.93;9.30;;;13.70;99.90;;;;;;4993035;28;20029;-84
2021/07/21 01:38:44;;;;;;;15.80;8.95;;;13.60;99.90;;;;;;5001460;28;20037;-85
2021/07/21 01:41:19;;;;;;;15.98;9.07;;;13.40;99.90;;;;;;5012437;28;20406;-85
2021/07/21 01:43:48;;;;;;;25.15;12.40;;;13.30;99.90;;;;;;5010825;28;20398;-85
2021/07/21 01:46:15;;;;;;;14.82;8.38;;;13.20;99.90;;;;;;5012509;28;20033;-85
2021/07/21 01:48:45;;;;;;;30.13;11.45;;;13.20;99.90;;;;;;5006131;28;20040;-84
2021/07/21 01:51:12;;;;;;;24.02;10.10;;;13.20;99.90;;;;;;4991422;28;20030;-84
2021/07/21 01:53:38;;;;;;;20.15;9.77;;;13.20;99.90;;;;;;4992662;28;20081;-84
2021/07/21 01:56:06;;;;;;;20.25;10.82;;;13.10;99.90;;;;;;4992761;28;20058;-84
2021/07/21 01:58:34;;;;;;;21.80;10.95;;;13.00;99.90;;;;;;4995081;28;20038;-84
2021/07/21 02:01:00;;;;;;;22.58;10.75;;;13.10;99.90;;;;;;5012371;28;20029;-84
2021/07/21 02:03:28;;;;;;;19.67;10.57;;;13.10;99.90;;;;;;5011991;28;20084;-84
2021/07/21 02:06:02;;;;;;;21.75;10.98;;;13.20;99.90;;;;;;5012054;28;20034;-84
2021/07/21 02:08:28;;;;;;;21.88;10.85;;;13.20;99.90;;;;;;5012266;28;20498;-84
2021/07/21 02:10:57;;;;;;;28.30;11.05;;;13.20;99.90;;;;;;4992980;28;20062;-84
2021/07/21 02:13:26;;;;;;;27.83;11.32;;;13.30;99.90;;;;;;4992373;28;20121;-84
2021/07/21 02:15:52;;;;;;;28.88;11.30;;;13.40;99.90;;;;;;4992481;28;20034;-84
2021/07/21 02:18:19;;;;;;;23.33;11.82;;;13.40;99.90;;;;;;4992437;28;20105;-84
2021/07/21 02:20:46;;;;;;;20.42;11.07;;;13.40;99.90;;;;;;5006887;28;20034;-84
2021/07/21 02:23:14;;;;;;;26.55;11.63;;;13.40;99.90;;;;;;5011743;28;20117;-85
2021/07/21 02:25:40;;;;;;;24.45;12.93;;;13.50;99.90;;;;;;5011992;28;20022;-85
2021/07/21 02:28:06;;;;;;;23.50;11.55;;;13.50;99.90;;;;;;5010821;28;20217;-83
2021/07/21 02:30:32;;;;;;;25.60;12.10;;;13.50;99.90;;;;;;5001557;28;20098;-84
2021/07/21 02:33:18;;;;;;;24.60;11.40;;;13.50;99.90;;;;;;5000138;28;20022;-84
2021/07/21 02:35:44;;;;;;;24.52;11.05;;;13.60;99.90;;;;;;4995121;28;20026;-84
2021/07/21 02:38:13;;;;;;;47.45;13.60;;;13.50;99.90;;;;;;5001854;28;20379;-85
2021/07/21 02:40:39;;;;;;;29.17;12.20;;;13.60;99.90;;;;;;5011923;28;20033;-85
2021/07/21 02:43:05;;;;;;;27.63;12.68;;;13.70;99.90;;;;;;5002649;28;20030;-85
2021/07/21 02:45:30;;;;;;;24.77;12.45;;;13.70;99.90;;;;;;5011718;28;20025;-84
2021/07/21 02:47:56;;;;;;;30.13;13.05;;;13.80;99.90;;;;;;5011878;28;20030;-84
2021/07/21 02:50:22;;;;;;;23.45;11.77;;;13.90;99.90;;;;;;5014525;28;20026;-85
2021/07/21 02:53:04;;;;;;;28.60;11.65;;;13.90;99.90;;;;;;5006562;28;20035;-85
2021/07/21 02:55:45;;;;;;;24.55;12.07;;;14.00;99.90;;;;;;4996078;28;20018;-84
2021/07/21 02:58:33;;;;;;;25.90;12.85;;;14.00;99.90;;;;;;5011098;28;20509;-84
2021/07/21 03:01:01;;;;;;;27.88;12.45;;;14.00;99.90;;;;;;5011078;28;20129;-85
2021/07/21 03:03:28;;;;;;;36.35;12.73;;;13.90;99.90;;;;;;4995829;28;20026;-84
2021/07/21 03:05:56;;;;;;;25.80;11.27;;;13.90;99.90;;;;;;4995763;28;20030;-85
2021/07/21 03:08:25;;;;;;;25.40;11.85;;;13.80;99.90;;;;;;4996930;28;20038;-85
2021/07/21 03:10:52;;;;;;;28.33;11.98;;;13.80;99.90;;;;;;5003462;28;20028;-84
2021/07/21 03:13:22;;;;;;;30.35;12.88;;;13.80;99.90;;;;;;5015238;28;20105;-84
2021/07/21 03:15:48;;;;;;;16.67;11.23;;;13.90;99.90;;;;;;5015255;28;20040;-85
2021/07/21 03:18:17;;;;;;;24.67;12.07;;;13.90;99.90;;;;;;5015273;28;20085;-85
2021/07/21 03:20:44;;;;;;;34.38;12.00;;;13.80;99.90;;;;;;5009293;28;20125;-84
2021/07/21 03:23:11;;;;;;;26.60;11.38;;;13.80;99.90;;;;;;4995262;28;20114;-85
2021/07/21 03:25:38;;;;;;;20.05;10.82;;;13.80;99.90;;;;;;4995398;28;20046;-84
2021/07/21 03:28:05;;;;;;;23.73;10.10;;;13.80;99.90;;;;;;4995376;28;20463;-84
2021/07/21 03:30:32;;;;;;;22.58;9.63;;;13.70;99.90;;;;;;4996056;28;20372;-84
2021/07/21 03:32:59;;;;;;;22.13;10.10;;;13.80;99.90;;;;;;5014926;28;20057;-85
2021/07/21 03:35:26;;;;;;;18.48;9.38;;;13.80;99.90;;;;;;5001606;28;20403;-84
2021/07/21 03:37:53;;;;;;;19.80;9.63;;;13.90;99.90;;;;;;4995346;28;20026;-84
2021/07/21 03:40:20;;;;;;;27.65;12.00;;;13.90;99.90;;;;;;4995271;28;20087;-84
2021/07/21 03:42:50;;;;;;;24.98;11.23;;;14.00;99.90;;;;;;5010885;28;20128;-84
2021/07/21 03:45:16;;;;;;;24.90;11.73;;;14.10;99.90;;;;;;5014813;28;20514;-86
2021/07/21 03:47:43;;;;;;;28.48;12.38;;;14.20;99.90;;;;;;5014776;28;20067;-85
2021/07/21 03:50:10;;;;;;;28.27;12.57;;;14.20;99.90;;;;;;5014754;28;20433;-85
2021/07/21 03:52:36;;;;;;;16.52;10.63;;;14.30;99.90;;;;;;5012754;28;20053;-84
2021/07/21 03:55:04;;;;;;;36.55;11.38;;;14.30;99.90;;;;;;5014478;28;20026;-85
2021/07/21 03:57:29;;;;;;;20.83;10.32;;;14.40;99.90;;;;;;5014522;28;20034;-84
2021/07/21 03:59:56;;;;;;;26.08;11.25;;;14.30;99.90;;;;;;5013980;28;20402;-84
2021/07/21 04:02:22;;;;;;;25.20;10.93;;;14.40;99.90;;;;;;5006714;28;20035;-84
2021/07/21 04:04:49;;;;;;;21.20;10.95;;;14.40;99.90;;;;;;5012083;28;20072;-85
2021/07/21 04:07:16;;;;;;;17.48;9.93;;;14.40;99.90;;;;;;5014339;28;20030;-84
2021/07/21 04:09:47;;;;;;;25.20;10.50;;;14.40;99.90;;;;;;5014351;28;20030;-86
2021/07/21 04:12:14;;;;;;;30.48;9.95;;;14.40;99.90;;;;;;5029337;28;20618;-85
2021/07/21 04:14:47;;;;;;;18.98;9.32;;;14.50;99.90;;;;;;5029395;28;20376;-84
2021/07/21 04:17:15;;;;;;;15.38;8.40;;;14.50;99.90;;;;;;5013964;28;20041;-84
2021/07/21 04:19:42;;;;;;;22.77;9.82;;;14.50;99.90;;;;;;5014100;28;20029;-84
2021/07/21 04:22:08;;;;;;;20.52;9.10;;;14.50;99.90;;;;;;5013821;28;20030;-85
2021/07/21 04:24:34;;;;;;;19.25;8.45;;;14.50;99.90;;;;;;5014000;28;20080;-84
2021/07/21 04:27:03;;;;;;;15.90;8.82;;;14.40;99.90;;;;;;5010455;28;20403;-84
2021/07/21 04:29:32;;;;;;;18.08;9.07;;;14.40;99.90;;;;;;5013935;28;20113;-85
2021/07/21 04:31:59;;;;;;;21.00;9.15;;;14.40;99.90;;;;;;5013760;28;20018;-85
2021/07/21 04:34:25;;;;;;;14.88;8.13;;;14.30;99.90;;;;;;5013746;28;20041;-84
2021/07/21 04:36:53;;;;;;;12.38;7.90;;;14.30;99.90;;;;;;5002903;28;20034;-84
2021/07/21 04:39:20;;;;;;;22.38;8.80;;;14.30;99.90;;;;;;4994283;28;20468;-85
2021/07/21 04:41:52;;;;;;;17.67;9.82;;;14.30;99.90;;;;;;4993925;28;20030;-85
2021/07/21 04:44:19;;;;;;;19.10;9.55;;;14.50;99.90;;;;;;5009144;28;20062;-84
2021/07/21 04:46:45;;;;;;;21.25;9.35;;;14.60;99.90;;;;;;5015704;28;20506;-84
2021/07/21 04:49:15;;;;;;;20.67;8.45;;;14.70;99.90;;;;;;4998979;28;20118;-85
2021/07/21 04:51:42;;;;;;;16.05;7.78;;;14.80;99.90;;;;;;5013350;28;20137;-84
2021/07/21 04:54:08;;;;;;;16.23;8.80;;;14.90;99.90;;;;;;5018497;28;20399;-85
2021/07/21 04:56:34;;;;;;;20.52;8.82;;;15.10;99.90;;;;;;5007075;28;20123;-84
2021/07/21 04:59:00;;;;;;;19.63;7.90;;;15.20;99.90;;;;;;5026784;28;20028;-85
2021/07/21 05:01:25;;;;;;;15.18;8.07;;;15.30;99.90;;;;;;5032660;28;20033;-86
2021/07/21 05:03:54;;;;;;;23.40;7.47;;;15.30;99.90;;;;;;5001657;28;20026;-85
2021/07/21 05:06:23;;;;;;;17.10;7.45;;;15.40;99.90;;;;;;5015533;28;20108;-84
2021/07/21 05:08:49;;;;;;;14.18;6.95;;;15.50;99.90;;;;;;5017115;28;20021;-85
2021/07/21 05:11:14;;;;;;;14.23;6.85;;;15.50;99.90;;;;;;5006448;28;20026;-84
2021/07/21 05:13:40;;;;;;;21.52;7.15;;;15.60;99.90;;;;;;5020341;28;20075;-86
2021/07/21 05:16:07;;;;;;;19.77;7.35;;;15.70;99.90;;;;;;5021451;28;20030;-84
2021/07/21 05:18:33;;;;;;;19.20;9.20;;;15.70;99.90;;;;;;5008370;28;20032;-84
2021/07/21 05:20:58;;;;;;;21.05;8.13;;;15.70;99.90;;;;;;5022495;28;20022;-86
2021/07/21 05:23:24;;;;;;;17.00;8.43;;;15.70;99.90;;;;;;5012050;28;20054;-84
2021/07/21 05:25:49;;;;;;;26.25;9.07;;;15.70;99.90;;;;;;5013201;28;20101;-86
2021/07/21 05:28:15;;;;;;;22.60;9.50;;;15.80;99.90;;;;;;5022364;28;20061;-86
2021/07/21 05:30:40;;;;;;;19.70;9.57;;;15.80;99.90;;;;;;5014587;28;20112;-86
2021/07/21 05:33:06;;;;;;;21.95;10.32;;;15.90;99.90;;;;;;5012134;28;20108;-87
2021/07/21 05:35:31;;;;;;;19.13;9.27;;;16.00;99.90;;;;;;5024245;28;20516;-86
2021/07/21 05:37:57;;;;;;;15.07;8.50;;;16.00;99.90;;;;;;5008932;28;20038;-84
2021/07/21 05:40:23;;;;;;;21.73;10.13;;;16.00;99.90;;;;;;5014981;28;20591;-85
2021/07/21 05:42:49;;;;;;;21.08;10.55;;;16.10;99.90;;;;;;4991665;28;20026;-86
2021/07/21 05:45:15;;;;;;;18.83;9.13;;;16.20;99.90;;;;;;5007997;28;20532;-86
2021/07/21 05:47:41;;;;;;;15.23;9.77;;;16.20;99.90;;;;;;4992997;28;20034;-85
2021/07/21 05:50:08;;;;;;;19.30;11.32;;;16.20;99.90;;;;;;5000876;28;20101;-84
2021/07/21 05:52:34;;;;;;;19.63;9.80;;;16.30;99.90;;;;;;4992697;28;20018;-85
2021/07/21 05:55:00;;;;;;;19.63;10.80;;;16.50;99.90;;;;;;4998159;28;20092;-84
2021/07/21 05:57:25;;;;;;;21.70;10.75;;;16.50;99.90;;;;;;5014093;28;20038;-84
2021/07/21 05:59:51;;;;;;;19.95;10.98;;;16.70;99.90;;;;;;5018062;28;20030;-88
2021/07/21 06:02:17;;;;;;;27.80;13.25;;;16.60;99.90;;;;;;5020665;28;20029;-82
2021/07/21 06:04:43;;;;;;;20.42;12.27;;;16.60;99.90;;;;;;5030465;28;20541;-83
2021/07/21 06:07:08;;;;;;;15.35;11.15;;;16.60;99.90;;;;;;5031697;28;20036;-83
2021/07/21 06:09:35;;;;;;;15.07;11.07;;;16.60;99.90;;;;;;5031831;28;20088;-82
2021/07/21 06:12:01;;;;;;;23.27;13.55;;;16.50;99.90;;;;;;5013954;28;20489;-83
2021/07/21 06:14:26;;;;;;;19.40;11.63;;;16.50;99.90;;;;;;4992374;28;20402;-82
2021/07/21 06:16:52;;;;;;;26.05;13.27;;;16.60;99.90;;;;;;4992307;28;20022;-82
2021/07/21 06:19:18;;;;;;;19.73;12.15;;;16.70;99.90;;;;;;4992456;28;20030;-84
2021/07/21 06:21:44;;;;;;;26.02;12.23;;;16.80;99.90;;;;;;4997218;28;20061;-82
2021/07/21 06:24:10;;;;;;;27.95;12.68;;;16.90;99.90;;;;;;5003493;28;20030;-85
2021/07/21 06:26:36;;;;;;;14.98;12.30;;;17.00;99.90;;;;;;5012118;28;20402;-86
2021/07/21 06:29:02;;;;;;;18.42;11.98;;;17.10;99.90;;;;;;4996103;28;20030;-86
2021/07/21 06:31:27;;;;;;;24.58;12.73;;;17.10;99.90;;;;;;5000809;28;20165;-84
2021/07/21 06:33:53;;;;;;;15.27;12.25;;;17.20;99.90;;;;;;5009583;28;20041;-86
2021/07/21 06:36:18;;;;;;;19.95;12.50;;;17.20;99.90;;;;;;5015795;28;20037;-84
2021/07/21 06:38:44;;;;;;;24.73;12.43;;;17.30;99.90;;;;;;5007229;28;20026;-85
2021/07/21 06:41:09;;;;;;;20.70;11.30;;;17.30;99.90;;;;;;4993066;28;20034;-83
2021/07/21 06:43:35;;;;;;;18.50;12.98;;;17.20;99.90;;;;;;4992046;28;20122;-84
2021/07/21 06:46:01;;;;;;;16.63;12.32;;;17.20;99.90;;;;;;4992207;28;20033;-84
2021/07/21 06:48:26;;;;;;;24.27;13.65;;;17.30;99.90;;;;;;5007381;28;20027;-88
2021/07/21 06:50:52;;;;;;;17.90;12.68;;;17.40;99.90;;;;;;5004607;28;20029;-84
2021/07/21 06:53:18;;;;;;;24.35;11.60;;;17.50;99.90;;;;;;4992329;28;20065;-83
2021/07/21 06:55:43;;;;;;;29.40;12.40;;;17.40;99.90;;;;;;4997735;28;20032;-82
2021/07/21 06:58:09;;;;;;;22.02;12.27;;;17.30;99.90;;;;;;5011556;28;20109;-84
2021/07/21 07:00:34;;;;;;;22.85;12.27;;;17.40;99.90;;;;;;5026687;28;20022;-85
2021/07/21 07:03:00;;;;;;;21.25;12.05;;;17.50;99.90;;;;;;5011340;28;20036;-84
2021/07/21 07:05:26;;;;;;;15.80;12.50;;;17.40;99.90;;;;;;5000169;28;20487;-84
2021/07/21 07:07:52;;;;;;;16.20;11.35;;;17.50;99.90;;;;;;4997343;28;20490;-86
2021/07/21 07:10:18;;;;;;;17.83;11.60;;;17.60;99.90;;;;;;5011413;28;20034;-86
2021/07/21 07:12:46;;;;;;;19.25;10.63;;;17.50;99.90;;;;;;5011293;28;20025;-82
2021/07/21 07:15:12;;;;;;;17.33;10.10;;;17.50;99.90;;;;;;5011242;28;20548;-82
2021/07/21 07:17:38;;;;;;;18.70;11.07;;;17.30;99.90;;;;;;5026688;28;20046;-85
2021/07/21 07:20:05;;;;;;;16.08;10.40;;;17.20;99.90;;;;;;5011406;28;20026;-84
2021/07/21 07:22:31;;;;;;;14.52;9.82;;;17.10;99.90;;;;;;5011036;28;20036;-84
2021/07/21 07:24:57;;;;;;;18.00;11.05;;;17.10;99.90;;;;;;5011232;28;20022;-82
2021/07/21 07:27:22;;;;;;;15.35;11.18;;;17.10;99.90;;;;;;5011194;28;20026;-83
2021/07/21 07:29:48;;;;;;;19.15;11.35;;;17.10;99.90;;;;;;5011111;28;20030;-84
2021/07/21 07:32:13;;;;;;;17.17;10.77;;;17.20;99.90;;;;;;5011141;28;20033;-84
2021/07/21 07:34:39;;;;;;;15.00;11.25;;;17.20;99.90;;;;;;5011381;28;20033;-84
2021/07/21 07:37:05;;;;;;;27.83;10.95;;;17.20;99.90;;;;;;5014717;28;20104;-83
2021/07/21 07:39:30;;;;;;;21.02;12.82;;;17.30;99.90;;;;;;5014842;28;20026;-82
2021/07/21 07:41:59;;;;;;;21.42;11.25;;;17.40;99.90;;;;;;5014597;28;20084;-87
2021/07/21 07:44:25;;;;;;;13.75;10.88;;;17.60;99.90;;;;;;5012279;28;20026;-87
2021/07/21 07:46:51;;;;;;;16.55;10.65;;;17.80;99.90;;;;;;5005370;28;20014;-85
2021/07/21 07:49:17;;;;;;;13.35;9.52;;;17.80;99.90;;;;;;5028058;28;20470;-83
2021/07/21 07:51:42;;;;;;;18.50;9.45;;;17.80;99.90;;;;;;5029488;28;20548;-85
2021/07/21 07:54:08;;;;;;;13.60;9.00;;;17.80;99.90;;;;;;5007792;28;20022;-86
2021/07/21 07:56:34;;;;;;;15.30;9.55;;;17.80;99.90;;;;;;5015065;28;20135;-86
2021/07/21 07:59:05;;;;;;;18.40;8.57;;;17.90;99.90;;;;;;5020967;28;20029;-85
2021/07/21 08:01:30;;;;;;;13.63;7.55;;;18.00;99.90;;;;;;5020784;28;20514;-86
2021/07/21 08:03:56;;;;;;;10.45;7.53;;;17.90;99.90;;;;;;5020764;28;20021;-87
2021/07/21 08:06:21;;;;;;;15.27;8.85;;;17.80;99.90;;;;;;5013684;28;20486;-87
2021/07/21 08:08:47;;;;;;;14.77;8.52;;;17.90;99.90;;;;;;5021127;28;20022;-86
2021/07/21 08:11:13;;;;;;;21.35;8.32;;;18.00;99.90;;;;;;5020060;28;20241;-87
2021/07/21 08:13:40;;;;;;;12.27;8.32;;;18.10;99.90;;;;;;5020974;28;20022;-86
2021/07/21 08:16:08;;;;;;;14.80;7.72;;;18.20;99.90;;;;;;5033213;22;20053;-84
2021/07/21 08:18:39;;;;;;;11.68;6.45;;;18.40;99.90;;;;;;5034105;28;20060;-87
2021/07/21 08:21:05;;;;;;;11.90;7.60;;;18.40;99.90;;;;;;5016396;28;20144;-85
2021/07/21 08:23:37;;;;;;;15.30;7.97;;;18.70;99.90;;;;;;5016021;28;20037;-85
2021/07/21 08:26:03;;;;;;;19.30;9.38;;;18.70;99.90;;;;;;5016205;28;20486;-84
2021/07/21 08:28:38;;;;;;;17.05;9.52;;;18.70;99.90;;;;;;5034015;28;20052;-86
2021/07/21 08:31:04;;;;;;;13.60;9.05;;;18.50;99.90;;;;;;5033979;28;20021;-83
2021/07/21 08:33:30;;;;;;;16.75;8.93;;;18.50;99.90;;;;;;5015532;28;20021;-85
2021/07/21 08:35:55;;;;;;;14.30;9.05;;;18.40;99.90;;;;;;5015949;28;20056;-86
2021/07/21 08:38:21;;;;;;;21.77;11.07;;;18.50;99.90;;;;;;5015874;28;20026;-88
2021/07/21 08:40:48;;;;;;;16.85;10.82;;;18.50;99.90;;;;;;5033508;28;20370;-84
2021/07/21 08:43:15;;;;;;;21.65;12.32;;;18.60;99.90;;;;;;5015557;28;20393;-85
2021/07/21 08:45:41;;;;;;;24.33;12.38;;;18.70;99.90;;;;;;5033192;28;20025;-85
2021/07/21 08:48:07;;;;;;;18.13;11.65;;;18.40;99.90;;;;;;5015636;28;20026;-84
2021/07/21 08:50:32;;;;;;;19.60;9.77;;;18.30;99.90;;;;;;5015688;28;20032;-85
2021/07/21 08:52:58;;;;;;;21.05;10.45;;;18.30;99.90;;;;;;5033292;28;20037;-87
2021/07/21 08:55:25;;;;;;;20.55;10.27;;;18.20;99.90;;;;;;5029280;28;20021;-87
2021/07/21 08:57:51;;;;;;;13.07;9.55;;;18.30;99.90;;;;;;5042551;28;20079;-87
2021/07/21 09:00:17;;;;;;;15.85;10.73;;;18.20;99.90;;;;;;5032316;28;20021;-87
2021/07/21 09:02:45;;;;;;;17.00;10.90;;;18.30;99.90;;;;;;5042042;28;20542;-87
2021/07/21 09:05:12;;;;;;;23.13;10.68;;;18.50;99.90;;;;;;5017350;28;20126;-87
2021/07/21 09:07:39;;;;;;;15.50;10.48;;;18.60;99.90;;;;;;5045330;28;20033;-89
2021/07/21 09:10:11;;;;;;;16.38;10.60;;;18.60;99.90;;;;;;5028362;28;20106;-88
2021/07/21 09:12:38;;;;;;;15.40;10.05;;;18.60;99.90;;;;;;5032195;28;20024;-88
2021/07/21 09:15:06;;;;;;;13.20;8.48;;;18.80;99.90;;;;;;5032967;28;20025;-87
2021/07/21 09:17:31;;;;;;;17.42;9.75;;;18.80;99.90;;;;;;5030032;28;20104;-87
2021/07/21 09:19:57;;;;;;;13.05;8.73;;;18.80;99.90;;;;;;5030788;28;20154;-84
2021/07/21 09:22:29;;;;;;;12.38;8.18;;;18.70;99.90;;;;;;5028786;28;20524;-86
2021/07/21 09:25:20;;;;;;;13.18;8.57;;;18.70;99.90;;;;;;5023932;28;20108;-85
2021/07/21 09:27:50;;;;;;;14.27;8.88;;;18.60;99.90;;;;;;5015046;28;20565;-86
2021/07/21 09:30:23;;;;;;;14.52;8.75;;;18.60;99.90;;;;;;5014358;28;20021;-86
2021/07/21 09:33:00;;;;;;;17.35;10.52;;;18.50;99.90;;;;;;5032256;28;20109;-84
2021/07/21 09:35:43;;;;;;;13.88;9.73;;;18.40;99.90;;;;;;5014655;28;20025;-86
2021/07/21 09:38:17;;;;;;;15.50;11.25;;;18.40;99.90;;;;;;5032585;28;20071;-86
2021/07/21 09:40:54;;;;;;;14.80;9.90;;;18.40;99.90;;;;;;5032325;28;20503;-85
2021/07/21 09:43:32;;;;;;;15.77;8.95;;;18.40;99.90;;;;;;5032181;28;20029;-88
2021/07/21 09:46:05;;;;;;;20.27;7.88;;;18.40;99.90;;;;;;5014685;28;20084;-86
2021/07/21 09:48:43;;;;;;;16.10;7.53;;;18.70;99.90;;;;;;5011394;28;20072;-87
2021/07/21 09:51:10;;;;;;;11.02;7.57;;;18.90;99.90;;;;;;5011147;28;20058;-83
2021/07/21 09:53:40;;;;;;;10.23;6.10;;;19.00;99.90;;;;;;5012276;28;20022;-83
2021/07/21 09:56:06;;;;;;;14.23;6.85;;;18.90;99.90;;;;;;5012365;28;20030;-82
2021/07/21 09:58:34;;;;;;;14.57;6.97;;;18.80;99.90;;;;;;5010766;28;20029;-82
2021/07/21 10:01:00;;;;;;;11.23;6.50;;;18.70;99.90;;;;;;5009208;28;20037;-83
2021/07/21 10:03:27;;;;;;;12.45;6.95;;;18.50;99.90;;;;;;5012132;28;20109;-85
2021/07/21 10:06:06;;;;;;;11.40;7.97;;;18.30;99.90;;;;;;5012381;28;20404;-84
2021/07/21 10:08:52;;;;;;;22.35;8.27;;;18.20;99.90;;;;;;4994639;28;20371;-85
2021/07/21 10:11:24;;;;;;;13.15;7.30;;;18.40;99.90;;;;;;5014128;28;20033;-84
2021/07/21 10:13:51;;;;;;;12.80;8.00;;;18.50;99.90;;;;;;5014072;28;20029;-83
2021/07/21 10:16:51;;;;;;;14.55;7.75;;;18.80;99.90;;;;;;5031779;28;20508;-82
2021/07/21 10:19:23;;;;;;;12.15;8.07;;;18.80;99.90;;;;;;5009551;28;20091;-83
2021/07/21 10:21:56;;;;;;;8.80;6.72;;;18.70;99.90;;;;;;5031617;28;20032;-83
2021/07/21 10:24:23;;;;;;;11.18;7.63;;;18.60;99.90;;;;;;5027308;28;20033;-84
2021/07/21 10:26:50;;;;;;;10.38;7.15;;;18.60;99.90;;;;;;5011903;28;20110;-84
2021/07/21 10:29:17;;;;;;;14.23;8.57;;;18.30;99.90;;;;;;4994206;28;20224;-85
2021/07/21 10:31:43;;;;;;;16.45;7.53;;;18.10;99.90;;;;;;4994046;28;20021;-85
2021/07/21 10:34:09;;;;;;;12.48;7.15;;;18.10;99.90;;;;;;5011908;28;20490;-84
2021/07/21 10:36:36;;;;;;;14.32;7.45;;;18.30;99.90;;;;;;4994170;28;20037;-84
2021/07/21 10:39:07;;;;;;;16.55;7.55;;;18.50;99.90;;;;;;4994074;28;20426;-85
2021/07/21 10:41:33;;;;;;;15.13;8.48;;;18.90;99.90;;;;;;4993965;28;20030;-84
2021/07/21 10:43:59;;;;;;;16.10;8.40;;;19.20;99.90;;;;;;4993883;28;20099;-83
2021/07/21 10:46:39;;;;;;;16.20;8.57;;;19.20;99.90;;;;;;5011690;28;20059;-83
2021/07/21 10:49:23;;;;;;;14.25;8.60;;;19.20;99.90;;;;;;4994205;28;20022;-84
2021/07/21 10:52:33;;;;;;;18.50;8.68;;;19.20;99.90;;;;;;4994091;28;20121;-85
2021/07/21 11:00:24;;;;;;;13.80;7.53;;;19.00;99.90;;;;;;5011733;28;20029;-85
2021/07/21 11:02:52;;;;;;;18.95;9.23;;;18.70;99.90;;;;;;5011303;28;20037;-84
2021/07/21 11:05:26;;;;;;;18.73;9.27;;;18.70;99.90;;;;;;4993960;28;20026;-86
2021/07/21 11:07:54;;;;;;;15.57;9.65;;;18.50;99.90;;;;;;5011613;28;20025;-86
2021/07/21 11:10:38;;;;;;;18.02;9.10;;;18.60;99.90;;;;;;5012495;28;20033;-86
2021/07/21 11:13:06;;;;;;;14.57;9.10;;;18.70;99.90;;;;;;5015080;28;20022;-88
2021/07/21 11:15:44;;;;;;;13.35;9.20;;;18.90;99.90;;;;;;5015092;28;20029;-87
2021/07/21 11:18:22;;;;;;;13.25;9.05;;;19.10;99.90;;;;;;5015046;28;20037;-86
2021/07/21 11:21:04;;;;;;;14.20;7.43;;;19.10;99.90;;;;;;5015013;28;20359;-85
2021/07/21 11:23:39;;;;;;;15.30;8.15;;;19.10;99.90;;;;;;5014958;28;20022;-87
2021/07/21 11:26:36;;;;;;;22.33;8.30;;;19.20;99.90;;;;;;4997399;28;20262;-86
2021/07/21 11:31:48;;;;;;;14.98;8.27;;;19.30;99.90;;;;;;5014905;28;20030;-87
2021/07/21 11:34:15;;;;;;;11.13;7.90;;;19.60;99.90;;;;;;5015031;28;20171;-85
2021/07/21 11:36:46;;;;;;;10.95;7.13;;;19.70;99.90;;;;;;5014873;28;20026;-86
2021/07/21 11:39:34;;;;;;;14.38;8.32;;;19.60;99.90;;;;;;5015123;28;20022;-85
2021/07/21 11:42:02;;;;;;;11.60;7.53;;;19.30;99.90;;;;;;4997125;28;20033;-86
2021/07/21 11:44:34;;;;;;;16.60;9.07;;;19.10;99.90;;;;;;4997184;28;20034;-85
2021/07/21 11:47:02;;;;;;;17.73;8.65;;;18.80;99.90;;;;;;5014817;28;20029;-84
2021/07/21 11:49:30;;;;;;;11.88;8.55;;;18.80;99.90;;;;;;5014565;28;20105;-85
2021/07/21 11:52:01;;;;;;;16.42;8.02;;;18.60;99.90;;;;;;4996746;28;20022;-84
2021/07/21 11:54:30;;;;;;;16.08;7.93;;;18.60;99.90;;;;;;4997010;28;20494;-85
2021/07/21 11:57:00;;;;;;;11.60;8.27;;;18.80;99.90;;;;;;5014552;28;20036;-85
2021/07/21 11:59:37;;;;;;;15.10;9.60;;;18.90;99.90;;;;;;5014687;28;20499;-85
2021/07/21 12:02:07;;;;;;;18.15;9.35;;;19.00;99.90;;;;;;5014231;28;20037;-85
2021/07/21 12:04:33;;;;;;;16.90;8.82;;;19.00;99.90;;;;;;4996669;28;20050;-81
2021/07/21 12:06:59;;;;;;;14.65;9.68;;;18.80;99.90;;;;;;4996711;28;20072;-86
2021/07/21 12:09:27;;;;;;;18.33;10.32;;;18.60;99.90;;;;;;5014201;28;20028;-84
2021/07/21 12:12:01;;;;;;;17.50;10.48;;;18.50;99.90;;;;;;5014047;28;20068;-85
2021/07/21 12:14:27;;;;;;;17.60;11.27;;;18.60;99.90;;;;;;5014140;28;20511;-83
2021/07/21 12:17:00;;;;;;;23.88;11.40;;;18.30;99.90;;;;;;4996230;28;20092;-85
2021/07/21 12:19:26;;;;;;;36.53;11.93;;;18.20;99.90;;;;;;5014101;28;20036;-84
2021/07/21 12:22:10;;;;;;;27.42;11.65;;;18.30;99.90;;;;;;5013432;28;20821;-87
2021/07/21 12:24:42;;;;;;;20.35;11.77;;;18.50;99.90;;;;;;5021716;28;20057;-83
2021/07/21 12:27:10;;;;;;;18.52;11.43;;;18.80;99.90;;;;;;5045814;28;20071;-81
2021/07/21 12:29:36;;;;;;;18.75;10.63;;;18.90;99.90;;;;;;5015834;28;20045;-85
2021/07/21 12:32:09;;;;;;;26.10;11.68;;;18.90;99.90;;;;;;5033459;28;20030;-85
2021/07/21 12:34:43;;;;;;;24.77;11.52;;;18.70;99.90;;;;;;5015877;28;20033;-84
2021/07/21 12:37:14;;;;;;;17.02;11.65;;;18.60;99.90;;;;;;5033535;28;20026;-83
2021/07/21 12:39:42;;;;;;;21.05;8.88;;;18.60;99.90;;;;;;5015679;28;20026;-83
2021/07/21 12:42:16;;;;;;;14.73;8.18;;;18.50;99.90;;;;;;5033297;28;20481;-84
2021/07/21 12:44:47;;;;;;;14.90;7.65;;;18.60;99.90;;;;;;5025077;28;20034;-82
2021/07/21 12:47:17;;;;;;;20.13;8.30;;;18.60;99.90;;;;;;4995958;28;20490;-85
2021/07/21 12:49:46;;;;;;;29.80;9.27;;;18.80;99.90;;;;;;5013505;28;20049;-84
2021/07/21 12:52:14;;;;;;;17.35;7.47;;;19.10;99.90;;;;;;4995429;28;20490;-83